Time;durP1;ratioP1;P1;durP2;ratioP2;P2;SDS_P1;SDS_P2;PMS_P1;PMS_P2;Temp;Humidity;BMP_temperature;BMP_pressure;BME280_temperature;BME280_humidity;BME280_pressure;Samples;Min_cycle;Max_cycle;Signal;HPM_P1;HPM_P2
2022/07/16 00:02:43;;;;;;;11.03;4.70;;;14.70;90.80;;;;;;5096123;28;20197;-87
2022/07/16 00:05:09;;;;;;;7.10;4.20;;;14.60;90.90;;;;;;5078150;28;20171;-87
2022/07/16 00:07:34;;;;;;;10.07;4.57;;;14.50;91.00;;;;;;5095800;28;20174;-87
2022/07/16 00:10:00;;;;;;;5.33;4.27;;;14.50;91.20;;;;;;5095565;28;20625;-87
2022/07/16 00:12:26;;;;;;;5.60;4.00;;;14.50;91.20;;;;;;5077324;28;20194;-88
2022/07/16 00:14:52;;;;;;;4.67;4.10;;;14.40;91.20;;;;;;5077501;28;20567;-87
2022/07/16 00:17:18;;;;;;;10.03;5.17;;;14.40;91.10;;;;;;5076973;28;20175;-88
2022/07/16 00:19:43;;;;;;;7.67;4.80;;;14.50;91.20;;;;;;5077115;28;20199;-88
2022/07/16 00:22:09;;;;;;;7.37;4.17;;;14.40;91.40;;;;;;5077039;28;20273;-88
2022/07/16 00:24:35;;;;;;;9.23;5.03;;;14.40;91.20;;;;;;5077218;28;20651;-87
2022/07/16 00:27:01;;;;;;;5.83;4.50;;;14.40;91.30;;;;;;5076935;28;20173;-88
2022/07/16 00:29:26;;;;;;;6.83;4.87;;;14.40;91.40;;;;;;5076962;28;20189;-88
2022/07/16 00:31:53;;;;;;;8.20;4.70;;;14.30;91.50;;;;;;5094788;28;20190;-88
2022/07/16 00:34:19;;;;;;;6.70;4.60;;;14.30;91.70;;;;;;5076818;28;20265;-88
2022/07/16 00:36:44;;;;;;;6.00;4.53;;;14.40;91.60;;;;;;5094745;28;20170;-88
2022/07/16 00:39:11;;;;;;;6.13;4.30;;;14.30;91.70;;;;;;5076529;28;20222;-88
2022/07/16 00:41:39;;;;;;;6.73;4.23;;;14.30;91.70;;;;;;5094644;28;20572;-87
2022/07/16 00:44:11;;;;;;;9.73;4.67;;;14.30;91.80;;;;;;5094078;28;20174;-88
2022/07/16 00:46:38;;;;;;;5.47;4.33;;;14.30;91.80;;;;;;5094843;28;20198;-88
2022/07/16 00:49:04;;;;;;;8.60;5.37;;;14.30;91.80;;;;;;5094464;28;20232;-89
2022/07/16 00:51:31;;;;;;;11.13;5.30;;;14.40;91.80;;;;;;5076289;28;20199;-89
2022/07/16 00:53:57;;;;;;;11.37;5.03;;;14.30;91.80;;;;;;5076326;28;20175;-88
2022/07/16 00:56:24;;;;;;;9.73;5.73;;;14.40;92.00;;;;;;5076475;28;20265;-87
2022/07/16 00:58:50;;;;;;;10.10;7.40;;;14.30;92.20;;;;;;5076578;28;20207;-89
2022/07/16 01:01:17;;;;;;;9.23;6.13;;;14.30;92.50;;;;;;5076609;28;20170;-89
2022/07/16 01:03:43;;;;;;;6.67;5.53;;;14.40;92.40;;;;;;5076098;28;20173;-88
2022/07/16 01:06:09;;;;;;;7.40;5.93;;;14.40;92.40;;;;;;5076146;28;20162;-89
2022/07/16 01:08:38;;;;;;;8.20;6.40;;;14.50;92.40;;;;;;5076061;28;20179;-88
2022/07/16 01:11:06;;;;;;;9.53;6.27;;;14.50;92.40;;;;;;5076001;28;20174;-88
2022/07/16 01:13:33;;;;;;;13.87;6.63;;;14.30;92.50;;;;;;5076341;28;20632;-89
2022/07/16 01:15:59;;;;;;;12.37;6.90;;;14.40;92.90;;;;;;5076238;28;20204;-89
2022/07/16 01:18:24;;;;;;;13.40;7.00;;;14.40;93.00;;;;;;5093844;28;20167;-90
2022/07/16 01:20:50;;;;;;;12.00;7.60;;;14.30;93.30;;;;;;5075859;28;20181;-89
2022/07/16 01:23:22;;;;;;;9.37;7.00;;;14.30;93.50;;;;;;5075704;28;20190;-90
2022/07/16 01:25:49;;;;;;;9.53;7.43;;;14.30;93.50;;;;;;5075881;28;20194;-89
2022/07/16 01:28:16;;;;;;;13.17;7.57;;;14.30;93.50;;;;;;5075727;28;20515;-90
2022/07/16 01:30:42;;;;;;;9.30;7.33;;;14.30;93.60;;;;;;5075794;28;20261;-90
2022/07/16 01:33:24;;;;;;;13.53;7.67;;;14.30;93.50;;;;;;5093885;28;20679;-90
2022/07/16 01:35:51;;;;;;;9.33;7.17;;;14.40;93.50;;;;;;5093868;28;20198;-90
2022/07/16 01:38:17;;;;;;;9.50;7.23;;;14.40;93.50;;;;;;5075955;28;20177;-90
2022/07/16 01:40:43;;;;;;;9.73;7.33;;;14.50;93.50;;;;;;5075850;28;20175;-90
2022/07/16 01:43:20;;;;;;;8.33;7.50;;;14.50;93.30;;;;;;5093523;28;20619;-89
2022/07/16 01:45:45;;;;;;;9.33;7.00;;;14.50;93.30;;;;;;5075608;28;20659;-90
2022/07/16 01:48:12;;;;;;;12.57;7.13;;;14.60;93.30;;;;;;5075497;28;20174;-90
2022/07/16 01:50:39;;;;;;;12.47;6.60;;;14.60;93.30;;;;;;5075483;28;20167;-90
2022/07/16 01:53:05;;;;;;;6.00;4.87;;;14.70;93.20;;;;;;5075337;28;20194;-90
2022/07/16 01:55:31;;;;;;;7.03;5.67;;;14.70;93.00;;;;;;5075266;28;20177;-89
2022/07/16 01:57:56;;;;;;;8.33;5.60;;;14.60;93.00;;;;;;5076072;28;20166;-89
2022/07/16 02:00:23;;;;;;;5.57;4.70;;;14.60;93.00;;;;;;5075162;28;20579;-90
2022/07/16 02:02:48;;;;;;;4.90;4.37;;;14.60;93.00;;;;;;5075541;28;20198;-90
2022/07/16 02:05:14;;;;;;;8.60;4.40;;;14.60;93.10;;;;;;5075413;28;20186;-90
2022/07/16 02:07:40;;;;;;;3.53;3.20;;;14.60;93.20;;;;;;5075354;28;20181;-89
2022/07/16 02:10:05;;;;;;;3.97;3.30;;;14.70;93.20;;;;;;5075356;28;20273;-90
2022/07/16 02:12:31;;;;;;;4.80;3.00;;;14.70;93.30;;;;;;5075180;28;20202;-89
2022/07/16 02:14:57;;;;;;;5.53;2.80;;;14.70;93.30;;;;;;5075237;28;20179;-91
2022/07/16 02:17:23;;;;;;;4.83;3.10;;;14.70;93.40;;;;;;5075264;28;20185;-90
2022/07/16 02:19:49;;;;;;;8.77;3.67;;;14.70;93.40;;;;;;5075266;28;20259;-90
2022/07/16 02:22:15;;;;;;;7.20;3.00;;;14.80;93.40;;;;;;5075159;28;20187;-90
2022/07/16 02:24:40;;;;;;;7.57;2.87;;;14.80;93.40;;;;;;5075135;28;20653;-91
2022/07/16 02:27:06;;;;;;;8.77;3.10;;;14.80;93.40;;;;;;5075384;28;20181;-90
2022/07/16 02:29:32;;;;;;;8.90;3.33;;;14.80;93.40;;;;;;5075146;28;20548;-90
2022/07/16 02:31:57;;;;;;;7.57;2.83;;;14.90;93.30;;;;;;5074969;28;20198;-90
2022/07/16 02:34:23;;;;;;;3.40;2.50;;;14.90;93.20;;;;;;5075037;28;20187;-89
2022/07/16 02:36:48;;;;;;;4.70;3.07;;;14.80;93.00;;;;;;5075059;28;20604;-90
2022/07/16 02:39:14;;;;;;;7.83;2.53;;;14.80;92.90;;;;;;5074922;28;20202;-90
2022/07/16 02:41:40;;;;;;;8.73;2.73;;;14.80;92.80;;;;;;5075089;28;20198;-90
2022/07/16 02:44:05;;;;;;;9.83;2.60;;;14.80;92.60;;;;;;5075056;28;20171;-90
2022/07/16 02:46:31;;;;;;;6.50;2.13;;;14.80;92.40;;;;;;5074821;28;20270;-90
2022/07/16 02:48:57;;;;;;;10.73;2.87;;;14.80;92.30;;;;;;5075004;28;20174;-90
2022/07/16 02:51:22;;;;;;;4.27;2.53;;;14.70;92.10;;;;;;5074893;28;20236;-90
2022/07/16 02:53:48;;;;;;;4.80;2.13;;;14.70;92.00;;;;;;5074833;28;20577;-90
2022/07/16 02:56:13;;;;;;;11.33;3.00;;;14.70;91.90;;;;;;5092855;28;20266;-90
2022/07/16 02:58:39;;;;;;;5.30;2.37;;;14.60;91.90;;;;;;5074681;28;20214;-91
2022/07/16 03:01:05;;;;;;;7.13;2.77;;;14.70;91.80;;;;;;5074854;28;20220;-90
2022/07/16 03:03:30;;;;;;;5.33;2.70;;;14.60;91.70;;;;;;5074821;28;20195;-91
2022/07/16 03:05:56;;;;;;;4.73;2.27;;;14.50;91.60;;;;;;5075090;28;20536;-90
2022/07/16 03:08:21;;;;;;;8.00;2.50;;;14.50;91.50;;;;;;5078452;28;20197;-90
2022/07/16 03:10:47;;;;;;;9.93;2.87;;;14.40;91.40;;;;;;5078201;28;20174;-90
2022/07/16 03:13:13;;;;;;;7.80;3.17;;;14.50;91.50;;;;;;5078310;28;20191;-90
2022/07/16 03:15:38;;;;;;;6.47;2.77;;;14.40;91.30;;;;;;5078436;28;20174;-90
2022/07/16 03:18:04;;;;;;;6.23;2.93;;;14.40;91.30;;;;;;5096173;28;20590;-90
2022/07/16 03:20:29;;;;;;;12.50;3.27;;;14.30;91.20;;;;;;5078148;28;20289;-90
2022/07/16 03:22:55;;;;;;;7.70;2.97;;;14.40;91.20;;;;;;5096373;28;20191;-90
2022/07/16 03:25:20;;;;;;;6.37;2.90;;;14.40;91.20;;;;;;5096523;28;20171;-90
2022/07/16 03:27:46;;;;;;;5.70;3.00;;;14.40;91.20;;;;;;5077994;28;20181;-90
2022/07/16 03:30:17;;;;;;;8.20;3.07;;;14.40;91.20;;;;;;5078020;28;20178;-90
2022/07/16 03:32:42;;;;;;;8.47;3.27;;;14.50;91.10;;;;;;5077910;28;20262;-90
2022/07/16 03:35:09;;;;;;;10.77;2.73;;;14.60;91.20;;;;;;5077925;28;20652;-90
2022/07/16 03:38:57;;;;;;;11.43;2.93;;;14.60;91.00;;;;;;5077857;28;20190;-91
2022/07/16 03:40:20;;;;;;;7.27;2.80;;;14.60;90.80;;;;;;5095699;28;20293;-90
2022/07/16 03:42:46;;;;;;;6.33;2.60;;;14.60;90.80;;;;;;5077965;28;20676;-90
2022/07/16 03:45:12;;;;;;;6.57;2.87;;;14.50;90.70;;;;;;5077720;28;20216;-90
2022/07/16 03:47:37;;;;;;;8.77;3.00;;;14.50;90.40;;;;;;5095756;28;20228;-90
2022/07/16 03:50:03;;;;;;;6.10;2.60;;;14.50;90.60;;;;;;5077633;28;20170;-90
2022/07/16 03:52:29;;;;;;;12.13;2.70;;;14.50;90.40;;;;;;5077434;28;20542;-90
2022/07/16 03:54:54;;;;;;;4.97;2.50;;;14.50;90.30;;;;;;5077855;28;20202;-89
2022/07/16 03:57:20;;;;;;;5.63;2.93;;;14.50;90.30;;;;;;5077489;28;20232;-90
2022/07/16 03:59:45;;;;;;;7.67;3.37;;;14.50;90.30;;;;;;5095514;28;20233;-90
2022/07/16 04:02:11;;;;;;;7.37;2.97;;;14.50;90.30;;;;;;5077326;28;20703;-90
2022/07/16 04:04:36;;;;;;;12.93;3.70;;;14.60;90.50;;;;;;5077226;28;20183;-90
2022/07/16 04:07:02;;;;;;;8.50;3.43;;;14.50;90.20;;;;;;5077313;28;20189;-90
2022/07/16 04:09:27;;;;;;;10.40;3.23;;;14.60;90.30;;;;;;5077173;28;20217;-90
2022/07/16 04:11:55;;;;;;;10.13;3.80;;;14.60;90.40;;;;;;5077734;28;20203;-90
2022/07/16 04:14:21;;;;;;;7.37;3.53;;;14.60;90.20;;;;;;5077049;28;20235;-91
2022/07/16 04:16:46;;;;;;;8.37;3.37;;;14.70;90.20;;;;;;5077052;28;20179;-91
2022/07/16 04:19:12;;;;;;;11.03;3.23;;;14.60;90.20;;;;;;5077014;28;20715;-89
2022/07/16 04:21:37;;;;;;;7.83;3.40;;;14.60;90.10;;;;;;5094942;28;20270;-90
2022/07/16 04:24:03;;;;;;;7.33;3.03;;;14.70;90.20;;;;;;5077108;28;20178;-90
2022/07/16 04:26:29;;;;;;;6.13;3.47;;;14.70;90.20;;;;;;5076733;28;20170;-89
2022/07/16 04:28:54;;;;;;;9.50;3.00;;;14.80;90.20;;;;;;5076752;28;20182;-90
2022/07/16 04:31:20;;;;;;;11.77;3.40;;;14.80;90.30;;;;;;5077823;28;20178;-90
2022/07/16 04:33:46;;;;;;;8.07;3.10;;;14.80;90.30;;;;;;5076691;28;20201;-90
2022/07/16 04:36:11;;;;;;;6.50;3.53;;;14.80;90.30;;;;;;5076705;28;20228;-90
2022/07/16 04:38:37;;;;;;;12.30;3.87;;;14.80;90.30;;;;;;5076790;28;20202;-90
2022/07/16 04:41:02;;;;;;;11.97;3.97;;;14.70;90.30;;;;;;5076603;28;20174;-90
2022/07/16 04:43:28;;;;;;;9.37;3.53;;;14.70;90.40;;;;;;5076419;28;20202;-90
2022/07/16 04:45:54;;;;;;;9.53;2.93;;;14.70;90.50;;;;;;5076506;28;20269;-90
2022/07/16 04:48:19;;;;;;;11.83;2.90;;;14.70;90.50;;;;;;5076386;28;20264;-90
2022/07/16 04:50:45;;;;;;;8.07;3.17;;;14.80;90.70;;;;;;5076316;28;20220;-89
2022/07/16 04:53:10;;;;;;;11.10;2.93;;;14.80;90.70;;;;;;5076250;28;20715;-90
2022/07/16 04:55:36;;;;;;;7.70;2.77;;;15.00;90.80;;;;;;5076202;28;20641;-90
2022/07/16 04:58:01;;;;;;;9.53;3.03;;;15.00;90.60;;;;;;5076146;28;20636;-90
2022/07/16 05:00:27;;;;;;;12.13;3.20;;;15.10;90.50;;;;;;5076745;28;20283;-90
2022/07/16 05:02:56;;;;;;;7.27;3.33;;;15.00;90.20;;;;;;5076395;28;20202;-89
2022/07/16 05:05:22;;;;;;;9.23;3.00;;;15.00;90.10;;;;;;5076124;28;20174;-90
2022/07/16 05:07:48;;;;;;;6.90;2.40;;;15.00;89.70;;;;;;5076862;28;20175;-90
2022/07/16 05:10:14;;;;;;;12.87;2.83;;;14.90;89.30;;;;;;5076034;28;20186;-90
2022/07/16 05:12:40;;;;;;;13.07;2.60;;;14.80;89.20;;;;;;5075817;28;20202;-89
2022/07/16 05:15:07;;;;;;;7.90;2.00;;;14.90;89.10;;;;;;5078113;28;20182;-90
2022/07/16 05:17:32;;;;;;;8.03;2.20;;;14.60;87.40;;;;;;5098919;28;20175;-90
2022/07/16 05:19:58;;;;;;;8.17;2.17;;;14.60;87.30;;;;;;5081154;28;20293;-90
2022/07/16 05:22:23;;;;;;;6.07;1.70;;;14.50;87.40;;;;;;5099039;28;20570;-90
2022/07/16 05:24:49;;;;;;;5.60;1.70;;;14.50;87.20;;;;;;5080825;28;20178;-90
2022/07/16 05:27:14;;;;;;;6.03;2.00;;;14.50;87.60;;;;;;5079810;28;20178;-90
2022/07/16 05:29:40;;;;;;;3.67;1.50;;;14.50;87.30;;;;;;5078923;28;20175;-90
2022/07/16 05:32:06;;;;;;;8.30;1.90;;;14.50;87.30;;;;;;5079573;28;20229;-89
2022/07/16 05:34:31;;;;;;;8.50;2.03;;;14.50;87.20;;;;;;5097206;28;20250;-90
2022/07/16 05:36:57;;;;;;;4.90;1.77;;;14.50;86.90;;;;;;5097268;28;20163;-90
2022/07/16 05:39:22;;;;;;;8.97;1.97;;;14.50;87.10;;;;;;5078854;28;20203;-89
2022/07/16 05:41:48;;;;;;;7.90;5.60;;;14.60;87.40;;;;;;5079089;28;20197;-90
2022/07/16 05:44:13;;;;;;;8.33;2.63;;;14.50;87.10;;;;;;5079381;28;20174;-89
2022/07/16 05:46:39;;;;;;;9.57;2.37;;;14.50;87.10;;;;;;5078290;28;20224;-90
2022/07/16 05:49:04;;;;;;;7.27;2.67;;;14.60;87.20;;;;;;5096660;28;20189;-90
2022/07/16 05:51:30;;;;;;;23.63;16.30;;;14.60;87.20;;;;;;5078586;28;20194;-89
2022/07/16 05:53:55;;;;;;;10.73;4.07;;;14.70;87.30;;;;;;5079179;28;20174;-90
2022/07/16 05:56:21;;;;;;;8.50;2.63;;;14.80;87.00;;;;;;5097019;28;20182;-90
2022/07/16 05:58:46;;;;;;;12.40;2.70;;;14.80;86.50;;;;;;5078505;28;20300;-89
2022/07/16 06:01:12;;;;;;;9.70;2.37;;;14.80;86.30;;;;;;5078643;28;20174;-89
2022/07/16 06:03:38;;;;;;;9.20;1.80;;;14.90;85.70;;;;;;5078790;28;20171;-90
2022/07/16 06:06:03;;;;;;;5.30;2.00;;;15.00;84.80;;;;;;5078880;28;20606;-89
2022/07/16 06:08:29;;;;;;;8.83;2.07;;;15.00;84.50;;;;;;5078024;28;20205;-89
2022/07/16 06:10:54;;;;;;;8.53;2.73;;;15.10;84.60;;;;;;5078079;28;20674;-90
2022/07/16 06:13:20;;;;;;;7.73;2.10;;;15.10;84.50;;;;;;5078349;28;20193;-89
2022/07/16 06:15:48;;;;;;;10.73;2.80;;;15.00;83.20;;;;;;5077870;28;20549;-90
2022/07/16 06:18:14;;;;;;;10.07;3.23;;;15.00;83.50;;;;;;5095408;28;20174;-90
2022/07/16 06:20:39;;;;;;;8.53;2.87;;;15.10;83.50;;;;;;5078393;28;20233;-89
2022/07/16 06:23:05;;;;;;;9.03;2.60;;;15.20;83.40;;;;;;5096136;28;20183;-89
2022/07/16 06:25:32;;;;;;;10.27;3.28;;;15.30;83.00;;;;;;5077416;28;20185;-88
2022/07/16 06:27:58;;;;;;;9.65;2.28;;;15.30;82.60;;;;;;5096077;28;20158;-88
2022/07/16 06:30:24;;;;;;;12.88;2.42;;;15.20;81.70;;;;;;5096297;28;20280;-89
2022/07/16 06:32:49;;;;;;;13.00;3.53;;;15.10;80.70;;;;;;5078246;28;20233;-89
2022/07/16 06:35:15;;;;;;;11.13;3.17;;;15.20;80.60;;;;;;5077425;28;20175;-89
2022/07/16 06:37:41;;;;;;;8.88;2.25;;;15.30;80.40;;;;;;5077661;28;20232;-90
2022/07/16 06:40:07;;;;;;;10.50;2.57;;;15.30;80.00;;;;;;5078352;28;20199;-87
2022/07/16 06:42:33;;;;;;;18.48;2.92;;;15.30;80.20;;;;;;5081386;28;20187;-91
2022/07/16 06:44:59;;;;;;;8.60;2.58;;;15.50;80.10;;;;;;5097780;28;20217;-88
2022/07/16 06:47:24;;;;;;;13.07;2.55;;;15.50;79.10;;;;;;5079867;28;20167;-88
2022/07/16 06:49:50;;;;;;;6.53;2.45;;;15.50;79.20;;;;;;5097796;28;20702;-88
2022/07/16 06:52:16;;;;;;;11.27;3.13;;;15.60;79.00;;;;;;5080091;28;20206;-88
2022/07/16 06:54:42;;;;;;;9.93;2.10;;;15.70;78.80;;;;;;5080100;28;20174;-88
2022/07/16 06:57:07;;;;;;;15.82;2.92;;;15.70;76.00;;;;;;5079407;28;20174;-88
2022/07/16 06:59:33;;;;;;;12.67;2.60;;;15.80;76.60;;;;;;5079287;28;20206;-87
2022/07/16 07:01:58;;;;;;;8.70;2.17;;;15.60;76.10;;;;;;5079306;28;20194;-88
2022/07/16 07:04:24;;;;;;;8.63;2.73;;;15.50;76.50;;;;;;5079163;28;20182;-88
2022/07/16 07:06:49;;;;;;;6.83;1.87;;;15.30;77.80;;;;;;5097594;28;20245;-88
2022/07/16 07:09:15;;;;;;;13.53;2.37;;;15.00;78.80;;;;;;5097215;28;20177;-87
2022/07/16 07:11:42;;;;;;;7.67;1.90;;;15.00;79.70;;;;;;5097560;28;20197;-89
2022/07/16 07:14:08;;;;;;;10.10;2.53;;;14.90;80.50;;;;;;5079739;28;20167;-88
2022/07/16 07:16:34;;;;;;;10.87;2.50;;;14.90;80.60;;;;;;5079293;28;20209;-88
2022/07/16 07:18:59;;;;;;;10.47;2.63;;;15.00;80.80;;;;;;5079154;28;20238;-87
2022/07/16 07:21:26;;;;;;;8.67;2.03;;;15.00;80.30;;;;;;5097099;28;20236;-88
2022/07/16 07:23:52;;;;;;;14.03;2.20;;;15.10;80.50;;;;;;5078989;28;20178;-88
2022/07/16 07:26:17;;;;;;;13.20;2.40;;;15.30;81.00;;;;;;5079293;28;20175;-88
2022/07/16 07:28:43;;;;;;;7.47;2.07;;;15.30;80.40;;;;;;5097935;28;20178;-88
2022/07/16 07:31:08;;;;;;;8.07;2.03;;;15.10;79.20;;;;;;5097780;28;20300;-88
2022/07/16 07:33:36;;;;;;;10.10;2.43;;;15.10;78.20;;;;;;5079429;28;20190;-88
2022/07/16 07:36:02;;;;;;;14.60;2.67;;;15.20;77.30;;;;;;5078814;28;20170;-89
2022/07/16 07:38:28;;;;;;;7.03;1.90;;;15.30;77.40;;;;;;5078755;28;20261;-88
2022/07/16 07:40:53;;;;;;;10.30;1.97;;;15.40;77.50;;;;;;5079109;28;20189;-89
2022/07/16 07:43:19;;;;;;;7.83;2.30;;;15.60;75.00;;;;;;5079850;28;20189;-88
2022/07/16 07:45:45;;;;;;;9.00;2.30;;;15.60;74.10;;;;;;5097446;28;20249;-86
2022/07/16 07:48:10;;;;;;;9.03;1.83;;;15.70;72.40;;;;;;5078337;28;20175;-88
2022/07/16 07:50:36;;;;;;;11.50;2.42;;;15.80;71.90;;;;;;5078926;28;20182;-87
2022/07/16 07:53:01;;;;;;;7.80;1.88;;;16.00;72.70;;;;;;5078380;28;20572;-88
2022/07/16 07:55:27;;;;;;;6.38;1.90;;;16.00;71.80;;;;;;5079131;28;20224;-89
2022/07/16 07:57:54;;;;;;;10.65;1.77;;;16.20;71.30;;;;;;5096774;28;20166;-87
2022/07/16 08:00:19;;;;;;;6.65;1.38;;;16.30;70.70;;;;;;5096315;28;20202;-87
2022/07/16 08:02:46;;;;;;;10.27;1.65;;;16.20;69.80;;;;;;5078496;28;20331;-87
2022/07/16 08:05:12;;;;;;;12.75;2.30;;;16.30;69.10;;;;;;5079427;28;20167;-88
2022/07/16 08:07:38;;;;;;;8.77;1.90;;;16.40;69.30;;;;;;5079943;28;20175;-87
2022/07/16 08:10:05;;;;;;;12.57;1.70;;;16.50;69.30;;;;;;5080010;28;20186;-87
2022/07/16 08:12:30;;;;;;;8.38;1.52;;;16.80;68.00;;;;;;5098529;28;20222;-90
2022/07/16 08:14:56;;;;;;;8.20;1.40;;;16.80;66.70;;;;;;5097682;28;20667;-88
2022/07/16 08:17:22;;;;;;;6.43;1.63;;;16.60;67.40;;;;;;5079658;28;20644;-90
2022/07/16 08:19:47;;;;;;;8.38;1.77;;;16.70;68.00;;;;;;5079445;28;20214;-89
2022/07/16 08:22:13;;;;;;;8.43;1.90;;;16.80;67.20;;;;;;5080147;28;20193;-89
2022/07/16 08:27:22;;;;;;;9.73;1.60;;;17.00;68.50;;;;;;5097191;28;20162;-88
2022/07/16 08:29:48;;;;;;;9.68;2.20;;;17.10;64.70;;;;;;5080152;28;20183;-88
2022/07/16 08:32:13;;;;;;;7.35;1.50;;;17.30;66.60;;;;;;5080926;28;20213;-88
2022/07/16 08:34:39;;;;;;;6.95;1.67;;;17.40;65.20;;;;;;5080360;28;20178;-91
2022/07/16 08:37:07;;;;;;;12.02;1.75;;;17.60;65.50;;;;;;5099357;28;20577;-88
2022/07/16 08:39:33;;;;;;;10.65;2.00;;;17.70;64.50;;;;;;5081064;28;20198;-89
2022/07/16 08:41:59;;;;;;;8.02;1.90;;;17.50;64.60;;;;;;5080692;28;20201;-90
2022/07/16 08:44:26;;;;;;;6.15;1.95;;;17.50;63.70;;;;;;5080557;28;20178;-90
2022/07/16 08:46:52;;;;;;;3.28;1.08;;;17.60;62.40;;;;;;5081091;28;20202;-89
2022/07/16 08:49:32;;;;;;;7.15;1.45;;;17.40;61.80;;;;;;5079600;28;20189;-91
2022/07/16 08:52:00;;;;;;;7.28;1.83;;;17.20;63.50;;;;;;5081266;28;20205;-88
2022/07/16 08:54:28;;;;;;;9.45;2.30;;;17.00;64.90;;;;;;5100893;28;20560;-88
2022/07/16 08:56:54;;;;;;;11.15;1.90;;;16.90;65.80;;;;;;5080163;28;20182;-88
2022/07/16 08:59:19;;;;;;;5.93;1.55;;;17.00;66.50;;;;;;5078671;28;20207;-88
2022/07/16 09:01:45;;;;;;;11.93;2.45;;;17.00;66.70;;;;;;5078854;28;20668;-87
2022/07/16 09:04:11;;;;;;;5.65;1.45;;;16.90;66.90;;;;;;5079329;28;20175;-88
2022/07/16 09:06:38;;;;;;;8.38;1.45;;;16.80;68.10;;;;;;5082036;28;20193;-91
2022/07/16 09:09:03;;;;;;;10.93;1.95;;;16.40;70.00;;;;;;5080558;28;20218;-88
2022/07/16 09:11:32;;;;;;;6.72;1.58;;;16.30;71.90;;;;;;5079973;28;20205;-87
2022/07/16 09:14:13;;;;;;;10.85;1.85;;;16.20;73.30;;;;;;5097242;28;20641;-87
2022/07/16 09:16:40;;;;;;;11.23;1.92;;;16.30;73.30;;;;;;5077667;28;20170;-89
2022/07/16 09:19:17;;;;;;;11.70;2.25;;;16.40;73.70;;;;;;5075901;28;20274;-88
2022/07/16 09:22:03;;;;;;;9.77;2.15;;;16.50;73.60;;;;;;5082293;28;20221;-88
2022/07/16 09:24:37;;;;;;;5.95;1.77;;;16.70;73.50;;;;;;5083543;28;20284;-89
2022/07/16 09:27:14;;;;;;;12.25;2.15;;;17.00;71.50;;;;;;5075984;28;20173;-88
2022/07/16 09:29:56;;;;;;;9.98;2.00;;;17.10;70.80;;;;;;5076289;28;20254;-91
2022/07/16 09:32:40;;;;;;;10.30;1.77;;;17.10;68.90;;;;;;5076856;28;20195;-89
2022/07/16 09:35:14;;;;;;;8.30;2.13;;;17.00;68.20;;;;;;5077815;28;20257;-90
2022/07/16 09:37:53;;;;;;;9.27;2.00;;;16.90;67.20;;;;;;5076560;28;20643;-90
2022/07/16 09:40:48;;;;;;;10.40;1.80;;;16.90;68.50;;;;;;5076672;28;20732;-89
2022/07/16 09:43:16;;;;;;;6.60;1.70;;;16.80;67.50;;;;;;5059215;28;20202;-89
2022/07/16 09:45:47;;;;;;;14.57;2.15;;;17.00;67.90;;;;;;5083505;28;20242;-91
2022/07/16 09:48:30;;;;;;;11.35;2.35;;;17.30;67.20;;;;;;5087930;28;20213;-92
2022/07/16 09:51:12;;;;;;;9.85;1.92;;;17.40;64.60;;;;;;5082167;28;20295;-90
2022/07/16 09:53:43;;;;;;;8.13;2.17;;;17.80;66.40;;;;;;5082139;28;20166;-90
2022/07/16 09:56:12;;;;;;;8.93;2.00;;;18.20;64.10;;;;;;5085519;28;20659;-91
2022/07/16 09:58:37;;;;;;;10.00;2.30;;;18.30;64.30;;;;;;5081007;28;20655;-90
2022/07/16 10:01:05;;;;;;;6.05;1.63;;;18.50;62.30;;;;;;5076336;28;20202;-90
2022/07/16 10:03:31;;;;;;;7.65;1.83;;;18.20;60.20;;;;;;5076134;28;20277;-88
2022/07/16 10:05:57;;;;;;;9.32;2.15;;;18.00;62.00;;;;;;5094150;28;20220;-87
2022/07/16 10:08:23;;;;;;;12.77;2.05;;;17.80;63.20;;;;;;5075547;28;20265;-87
2022/07/16 10:10:50;;;;;;;18.50;2.33;;;17.80;64.80;;;;;;5078805;28;20175;-89
2022/07/16 10:13:17;;;;;;;9.68;2.33;;;17.80;63.40;;;;;;5077967;28;20285;-90
2022/07/16 10:15:43;;;;;;;8.73;1.92;;;17.60;63.40;;;;;;5079960;28;20186;-88
2022/07/16 10:18:31;;;;;;;10.80;2.42;;;17.50;64.30;;;;;;5082372;28;20174;-88
2022/07/16 10:21:20;;;;;;;10.02;2.33;;;18.10;63.40;;;;;;5083056;28;20182;-88
2022/07/16 10:24:03;;;;;;;7.40;1.83;;;18.30;64.00;;;;;;5081853;28;20224;-89
2022/07/16 10:26:30;;;;;;;9.57;1.83;;;18.10;63.80;;;;;;5081420;28;20257;-91
2022/07/16 10:28:55;;;;;;;6.60;1.70;;;18.10;61.20;;;;;;5081010;28;20178;-90
2022/07/16 10:32:27;;;;;;;10.55;2.50;;;18.10;62.30;;;;;;5080795;28;20178;-90
2022/07/16 10:34:40;;;;;;;10.43;2.40;;;17.90;62.00;;;;;;5098266;28;20267;-89
2022/07/16 10:37:12;;;;;;;11.70;2.40;;;18.00;62.20;;;;;;5080605;28;20248;-89
2022/07/16 10:40:13;;;;;;;10.13;1.80;;;18.20;61.30;;;;;;5099867;28;20229;-89
2022/07/16 10:42:39;;;;;;;13.30;2.20;;;18.60;60.70;;;;;;4998746;28;20759;-90
2022/07/16 10:45:05;;;;;;;8.45;2.25;;;18.70;60.20;;;;;;5062638;28;20175;-90
2022/07/16 10:47:46;;;;;;;8.02;1.40;;;18.80;61.20;;;;;;5083402;28;20178;-89
2022/07/16 10:50:14;;;;;;;6.10;1.42;;;19.00;58.70;;;;;;5099243;28;20584;-88
2022/07/16 10:52:42;;;;;;;7.78;1.85;;;19.00;59.50;;;;;;5098731;28;20207;-87
2022/07/16 10:55:07;;;;;;;7.82;1.70;;;18.70;59.30;;;;;;5081228;28;20175;-89
2022/07/16 10:57:40;;;;;;;8.25;2.30;;;18.50;60.50;;;;;;5081445;28;20671;-87
2022/07/16 11:00:07;;;;;;;11.20;1.90;;;18.70;59.80;;;;;;5080739;28;20202;-87
2022/07/16 11:02:42;;;;;;;11.85;2.13;;;18.90;58.90;;;;;;5096980;28;20193;-85
2022/07/16 11:05:08;;;;;;;8.93;1.77;;;18.70;57.40;;;;;;5096926;28;20699;-85
2022/07/16 11:07:35;;;;;;;8.48;2.15;;;18.70;58.80;;;;;;5078350;28;20517;-86
2022/07/16 11:10:02;;;;;;;8.43;2.00;;;19.20;58.70;;;;;;5078591;28;20201;-85
2022/07/16 11:12:31;;;;;;;4.28;1.40;;;19.20;57.80;;;;;;5096485;28;20221;-84
2022/07/16 11:14:58;;;;;;;8.32;1.63;;;18.80;57.80;;;;;;5079250;28;20210;-87
2022/07/16 11:17:29;;;;;;;9.25;1.80;;;18.90;56.70;;;;;;5098356;28;20236;-85
2022/07/16 11:19:57;;;;;;;7.28;1.73;;;19.20;59.20;;;;;;5081085;28;20702;-85
2022/07/16 11:22:26;;;;;;;9.40;2.15;;;19.50;58.40;;;;;;5081260;28;20198;-85
2022/07/16 11:25:02;;;;;;;7.22;1.60;;;19.40;58.70;;;;;;5099226;28;20190;-83
2022/07/16 11:27:34;;;;;;;11.57;2.00;;;19.50;56.60;;;;;;5099014;28;20189;-85
2022/07/16 11:30:02;;;;;;;5.97;2.20;;;19.20;56.10;;;;;;5098987;28;20171;-85
2022/07/16 11:32:28;;;;;;;10.18;2.13;;;19.20;56.80;;;;;;5099585;28;20197;-85
2022/07/16 11:34:54;;;;;;;5.90;1.70;;;19.30;56.80;;;;;;5081447;28;20182;-85
2022/07/16 11:37:20;;;;;;;7.00;1.65;;;19.60;57.30;;;;;;5082357;28;20197;-85
2022/07/16 11:39:46;;;;;;;9.98;2.00;;;19.20;56.90;;;;;;5081571;28;20703;-85
2022/07/16 11:42:11;;;;;;;8.18;1.20;;;19.90;57.30;;;;;;5081695;28;20186;-83
2022/07/16 11:44:39;;;;;;;4.13;1.38;;;19.40;54.10;;;;;;5081767;28;20177;-84
2022/07/16 11:47:07;;;;;;;2.88;0.93;;;19.30;52.60;;;;;;5081769;28;20270;-85
2022/07/16 11:49:39;;;;;;;7.85;1.63;;;19.50;51.70;;;;;;5081564;28;20214;-87
2022/07/16 11:52:07;;;;;;;13.40;1.77;;;19.60;54.50;;;;;;5079743;28;20210;-86
2022/07/16 11:54:38;;;;;;;8.40;2.08;;;19.30;54.90;;;;;;5097582;28;20250;-84
2022/07/16 11:57:06;;;;;;;13.40;2.15;;;19.00;57.40;;;;;;5079626;28;20253;-85
2022/07/16 11:59:32;;;;;;;4.25;1.40;;;18.80;59.00;;;;;;5079115;28;20209;-85
2022/07/16 12:01:59;;;;;;;5.60;1.63;;;19.00;59.50;;;;;;5078472;28;20563;-85
2022/07/16 12:04:42;;;;;;;8.07;2.22;;;19.50;58.00;;;;;;5096811;28;20245;-86
2022/07/16 12:07:17;;;;;;;8.38;2.00;;;19.40;56.40;;;;;;5078673;28;20186;-85
2022/07/16 12:09:45;;;;;;;8.10;1.95;;;19.50;55.20;;;;;;5078456;28;20166;-86
2022/07/16 12:12:17;;;;;;;6.82;1.75;;;19.70;55.20;;;;;;5078207;28;20297;-85
2022/07/16 12:15:00;;;;;;;10.05;1.77;;;19.50;57.10;;;;;;5078067;28;20171;-86
2022/07/16 12:17:31;;;;;;;4.80;1.50;;;19.60;55.10;;;;;;5078910;28;20194;-86
2022/07/16 12:20:37;;;;;;;5.22;1.30;;;19.80;53.10;;;;;;5096940;28;20186;-85
2022/07/16 12:23:05;;;;;;;7.00;1.70;;;19.80;53.30;;;;;;5091051;28;20202;-84
2022/07/16 12:25:59;;;;;;;6.40;1.52;;;19.90;54.10;;;;;;5095952;28;20171;-85
2022/07/16 12:28:25;;;;;;;3.22;1.38;;;20.00;52.20;;;;;;5096365;28;20209;-85
2022/07/16 12:31:05;;;;;;;3.78;1.67;;;20.00;50.70;;;;;;5078305;28;20170;-84
2022/07/16 12:33:31;;;;;;;6.50;1.02;;;20.40;50.50;;;;;;5095820;28;20261;-84
2022/07/16 12:36:02;;;;;;;6.30;1.20;;;20.80;46.50;;;;;;5077864;28;20191;-84
2022/07/16 12:38:46;;;;;;;6.25;1.27;;;20.90;48.00;;;;;;5076853;28;20660;-84
2022/07/16 12:41:14;;;;;;;6.45;1.52;;;20.80;48.20;;;;;;5095903;28;20187;-84
2022/07/16 12:43:41;;;;;;;3.20;1.00;;;20.30;48.40;;;;;;5077619;28;20648;-84
2022/07/16 12:46:08;;;;;;;5.15;1.35;;;20.10;49.00;;;;;;5095821;28;20175;-84
2022/07/16 12:49:07;;;;;;;6.25;1.35;;;19.10;53.60;;;;;;5095408;28;20170;-83
2022/07/16 12:51:35;;;;;;;4.53;1.27;;;19.50;51.60;;;;;;5058616;28;20198;-84